首页
METAR-TAF:

METAR-TAF

机场 :

Mount Clemens, 密歇根州, 美国

纬度: 42-37N, 经度: 082-50W, 海拔: 177米

当前天气观测

该预报发布于52分钟前的00:55 UTC
静风
温度 2°C
湿度 100%
气压 1013 hPa
能見度: 4.8公里
散云层高于2600英尺
阴天层高于4800英尺
轻雾

METAR: KMTC 200055Z 00000KT 3SM BR SCT026 OVC048 02/02 A2991 RMK AO2A SLP129 SLP ESTMD T00230023

时间: 20:47 (01:47 UTC)

预报

该预报发布于47分钟前的01:00 UTC
预报有效从20日的 01点(UTC)到 21日的 07点(UTC)
风速6节,风向多变
能见度10公里或以上
散云层高于2600英尺
阴天层高于4500英尺
成为
从 20日的 11点(UTC)到 20日的 12点(UTC)
风速6节,风向多变
能見度: 8000
多云层高于1200英尺
轻雾
成为
从 20日的 12点(UTC)到 20日的 13点(UTC)
风速6节,风向多变
能見度: 8000
多云层高于600英尺
轻雾
成为
从 21日的 06点(UTC)到 21日的 07点(UTC)
风速6节,风向多变
能見度: 2009
多云层高于700英尺

TAF: KMTC 200100Z 2001/2107 VRB06KT 9999 SCT026 OVC045 QNH2990INS BECMG 2011/2012 VRB06KT 8000 BR BKN012 QNH3007INS BECMG 2012/2013 VRB06KT 8000 BR BKN006 QNH3010INS BECMG 2106/2107 VRB06KT 9999 NSW BKN007 QNH3020INS TX05/2019Z TN02/2011Z LAST NO AMDS AFT 2004 NEXT 2009

超过4000个机场的气象观测和天气预报(METAR&TAF报告)。

可查询的气象台以黄色和红色小点在地图上表示。

将鼠标移到小点上方,可查看气象台名称。

然后点击查看天气观测和预报。

如需切换地图:点击带黑十字的绿色按钮放大地图;点击带横线的绿色按钮缩小地图;或者点击绿色箭头查看邻近地区的地图。


METAR-TAF: